sensor_id;sensor_type;location;lat;lon;timestamp;noise_LAeq;noise_LA_min;noise_LA_max;noise_LA01;noise_LA95
43385;Laerm;28988;48.042;7.584;2023-11-21T00:00:10;90.14;-35.64;98.76;;
43385;Laerm;28988;48.042;7.584;2023-11-21T00:02:57;90.15;-22.78;99.17;;
43385;Laerm;28988;48.042;7.584;2023-11-21T00:05:43;90.14;-19.30;98.79;;
43385;Laerm;28988;48.042;7.584;2023-11-21T00:08:28;90.15;-16.31;98.79;;
43385;Laerm;28988;48.042;7.584;2023-11-21T00:11:14;90.15;-17.78;98.81;;
43385;Laerm;28988;48.042;7.584;2023-11-21T00:14:00;90.15;-47.54;98.86;;
43385;Laerm;28988;48.042;7.584;2023-11-21T00:16:45;90.16;-21.54;98.86;;
43385;Laerm;28988;48.042;7.584;2023-11-21T00:19:31;90.16;-42.78;99.13;;
43385;Laerm;28988;48.042;7.584;2023-11-21T00:22:17;90.16;-20.23;98.86;;
43385;Laerm;28988;48.042;7.584;2023-11-21T00:25:03;90.15;-42.91;98.92;;
43385;Laerm;28988;48.042;7.584;2023-11-21T00:27:51;90.15;-25.08;98.96;;
43385;Laerm;28988;48.042;7.584;2023-11-21T00:30:37;90.14;-24.31;98.90;;
43385;Laerm;28988;48.042;7.584;2023-11-21T00:33:23;90.15;-20.15;98.82;;
43385;Laerm;28988;48.042;7.584;2023-11-21T00:36:10;90.14;-18.00;98.86;;
43385;Laerm;28988;48.042;7.584;2023-11-21T00:38:56;90.14;-21.54;98.82;;
43385;Laerm;28988;48.042;7.584;2023-11-21T00:41:42;90.14;-17.33;98.90;;
43385;Laerm;28988;48.042;7.584;2023-11-21T00:44:27;90.13;-19.25;98.88;;
43385;Laerm;28988;48.042;7.584;2023-11-21T00:47:13;90.14;-21.54;98.81;;
43385;Laerm;28988;48.042;7.584;2023-11-21T00:49:58;90.13;-21.54;98.81;;
43385;Laerm;28988;48.042;7.584;2023-11-21T00:52:44;90.13;-11.51;98.76;;
43385;Laerm;28988;48.042;7.584;2023-11-21T00:55:30;90.13;-14.85;98.66;;
43385;Laerm;28988;48.042;7.584;2023-11-21T00:58:16;90.13;-16.02;98.60;;
43385;Laerm;28988;48.042;7.584;2023-11-21T01:01:01;90.13;-14.85;98.66;;
43385;Laerm;28988;48.042;7.584;2023-11-21T01:03:48;90.13;-14.66;98.66;;
43385;Laerm;28988;48.042;7.584;2023-11-21T01:06:34;90.13;-21.33;98.60;;
43385;Laerm;28988;48.042;7.584;2023-11-21T01:09:20;90.13;-14.66;98.66;;
43385;Laerm;28988;48.042;7.584;2023-11-21T01:12:05;90.13;-16.02;98.66;;
43385;Laerm;28988;48.042;7.584;2023-11-21T01:14:52;90.13;-21.54;98.66;;
43385;Laerm;28988;48.042;7.584;2023-11-21T01:17:37;90.13;-14.66;98.60;;
43385;Laerm;28988;48.042;7.584;2023-11-21T01:20:23;90.13;-21.54;98.66;;
43385;Laerm;28988;48.042;7.584;2023-11-21T01:23:09;90.13;-17.33;98.66;;
43385;Laerm;28988;48.042;7.584;2023-11-21T01:25:55;90.13;-14.66;98.60;;
43385;Laerm;28988;48.042;7.584;2023-11-21T01:28:41;90.13;-14.85;98.60;;
43385;Laerm;28988;48.042;7.584;2023-11-21T01:31:26;90.13;-16.02;98.66;;
43385;Laerm;28988;48.042;7.584;2023-11-21T01:34:14;90.13;-37.56;98.60;;
43385;Laerm;28988;48.042;7.584;2023-11-21T01:37:00;90.13;-14.66;98.60;;
43385;Laerm;28988;48.042;7.584;2023-11-21T01:39:47;90.13;-16.02;98.60;;
43385;Laerm;28988;48.042;7.584;2023-11-21T01:42:33;90.13;-20.67;98.60;;
43385;Laerm;28988;48.042;7.584;2023-11-21T01:45:20;90.13;-16.02;98.60;;
43385;Laerm;28988;48.042;7.584;2023-11-21T01:48:05;90.13;-20.23;98.60;;
43385;Laerm;28988;48.042;7.584;2023-11-21T01:50:52;90.13;-21.54;98.60;;
43385;Laerm;28988;48.042;7.584;2023-11-21T01:53:38;90.13;-14.85;98.60;;
43385;Laerm;28988;48.042;7.584;2023-11-21T01:56:24;90.13;-17.33;98.62;;
43385;Laerm;28988;48.042;7.584;2023-11-21T01:59:12;90.13;-14.85;98.71;;
43385;Laerm;28988;48.042;7.584;2023-11-21T02:01:59;90.13;-16.02;98.60;;
43385;Laerm;28988;48.042;7.584;2023-11-21T02:04:45;90.13;-17.33;98.60;;
43385;Laerm;28988;48.042;7.584;2023-11-21T02:07:30;90.13;-21.54;98.76;;
43385;Laerm;28988;48.042;7.584;2023-11-21T02:10:18;90.13;-14.66;98.66;;
43385;Laerm;28988;48.042;7.584;2023-11-21T02:13:07;90.13;-14.85;98.60;;
43385;Laerm;28988;48.042;7.584;2023-11-21T02:15:53;90.13;-14.66;98.60;;
43385;Laerm;28988;48.042;7.584;2023-11-21T02:18:39;90.13;-21.22;98.60;;
43385;Laerm;28988;48.042;7.584;2023-11-21T02:21:25;90.13;-33.80;98.60;;
43385;Laerm;28988;48.042;7.584;2023-11-21T02:24:11;90.13;-22.78;98.60;;
43385;Laerm;28988;48.042;7.584;2023-11-21T02:26:56;90.13;-24.69;98.60;;
43385;Laerm;28988;48.042;7.584;2023-11-21T02:29:42;90.13;-21.54;98.66;;
43385;Laerm;28988;48.042;7.584;2023-11-21T02:32:28;90.13;-21.54;98.60;;
43385;Laerm;28988;48.042;7.584;2023-11-21T02:35:14;90.13;-16.02;98.66;;
43385;Laerm;28988;48.042;7.584;2023-11-21T02:38:01;90.13;-17.33;98.60;;
43385;Laerm;28988;48.042;7.584;2023-11-21T02:40:47;90.13;-20.23;98.60;;
43385;Laerm;28988;48.042;7.584;2023-11-21T02:43:34;90.13;-21.54;98.66;;
43385;Laerm;28988;48.042;7.584;2023-11-21T02:46:19;90.13;-14.66;98.60;;
43385;Laerm;28988;48.042;7.584;2023-11-21T02:49:05;90.13;-14.66;98.66;;
43385;Laerm;28988;48.042;7.584;2023-11-21T02:51:51;90.13;-14.85;98.60;;
43385;Laerm;28988;48.042;7.584;2023-11-21T02:54:37;90.13;-17.33;98.60;;
43385;Laerm;28988;48.042;7.584;2023-11-21T02:57:23;90.13;-17.33;98.60;;
43385;Laerm;28988;48.042;7.584;2023-11-21T03:00:08;90.13;-20.19;98.60;;
43385;Laerm;28988;48.042;7.584;2023-11-21T03:02:55;90.13;-36.41;98.60;;
43385;Laerm;28988;48.042;7.584;2023-11-21T03:05:41;90.13;-14.85;98.66;;
43385;Laerm;28988;48.042;7.584;2023-11-21T03:08:27;90.13;-20.23;98.60;;
43385;Laerm;28988;48.042;7.584;2023-11-21T03:11:13;90.13;-20.23;98.66;;
43385;Laerm;28988;48.042;7.584;2023-11-21T03:13:58;90.14;-17.33;98.60;;
43385;Laerm;28988;48.042;7.584;2023-11-21T03:16:44;90.13;-14.85;98.60;;
43385;Laerm;28988;48.042;7.584;2023-11-21T03:19:30;90.13;-16.02;98.60;;
43385;Laerm;28988;48.042;7.584;2023-11-21T03:22:16;90.13;-17.33;98.81;;
43385;Laerm;28988;48.042;7.584;2023-11-21T03:25:01;90.13;-14.85;98.70;;
43385;Laerm;28988;48.042;7.584;2023-11-21T03:27:48;90.13;-17.33;98.71;;
43385;Laerm;28988;48.042;7.584;2023-11-21T03:30:33;90.13;-17.33;98.61;;
43385;Laerm;28988;48.042;7.584;2023-11-21T03:33:19;90.13;-14.85;98.66;;
43385;Laerm;28988;48.042;7.584;2023-11-21T03:36:05;90.13;-24.87;98.60;;
43385;Laerm;28988;48.042;7.584;2023-11-21T03:38:53;90.13;-14.66;98.70;;
43385;Laerm;28988;48.042;7.584;2023-11-21T03:41:39;90.13;-21.54;98.66;;
43385;Laerm;28988;48.042;7.584;2023-11-21T03:44:25;90.13;-17.33;98.60;;
43385;Laerm;28988;48.042;7.584;2023-11-21T03:47:11;90.13;-21.98;98.66;;
43385;Laerm;28988;48.042;7.584;2023-11-21T03:49:56;90.13;-21.54;98.71;;
43385;Laerm;28988;48.042;7.584;2023-11-21T03:52:42;90.13;-14.85;98.76;;
43385;Laerm;28988;48.042;7.584;2023-11-21T03:55:28;90.13;-17.33;98.66;;
43385;Laerm;28988;48.042;7.584;2023-11-21T03:58:13;90.13;-14.85;98.60;;
43385;Laerm;28988;48.042;7.584;2023-11-21T04:00:59;90.13;-20.67;98.79;;
43385;Laerm;28988;48.042;7.584;2023-11-21T04:03:44;90.13;-36.41;98.71;;
43385;Laerm;28988;48.042;7.584;2023-11-21T04:06:30;90.13;-44.06;98.60;;
43385;Laerm;28988;48.042;7.584;2023-11-21T04:09:18;90.13;-21.54;98.71;;
43385;Laerm;28988;48.042;7.584;2023-11-21T04:12:04;90.13;-21.54;98.66;;
43385;Laerm;28988;48.042;7.584;2023-11-21T04:14:49;90.13;-14.66;98.71;;
43385;Laerm;28988;48.042;7.584;2023-11-21T04:17:35;90.13;-18.00;98.71;;
43385;Laerm;28988;48.042;7.584;2023-11-21T04:20:22;90.13;-15.68;98.76;;
43385;Laerm;28988;48.042;7.584;2023-11-21T04:23:09;90.13;-17.33;98.71;;
43385;Laerm;28988;48.042;7.584;2023-11-21T04:25:55;90.13;-14.85;98.69;;
43385;Laerm;28988;48.042;7.584;2023-11-21T04:28:42;90.14;-21.54;98.66;;
43385;Laerm;28988;48.042;7.584;2023-11-21T04:31:28;90.13;-16.02;98.75;;
43385;Laerm;28988;48.042;7.584;2023-11-21T04:34:13;90.14;-14.85;98.66;;
43385;Laerm;28988;48.042;7.584;2023-11-21T04:36:59;90.13;-14.66;98.71;;
43385;Laerm;28988;48.042;7.584;2023-11-21T04:39:45;90.14;-42.24;98.70;;
43385;Laerm;28988;48.042;7.584;2023-11-21T04:42:31;90.13;-21.54;98.66;;
43385;Laerm;28988;48.042;7.584;2023-11-21T04:45:16;90.13;-14.85;98.81;;
43385;Laerm;28988;48.042;7.584;2023-11-21T04:48:02;90.13;-14.85;98.66;;
43385;Laerm;28988;48.042;7.584;2023-11-21T04:50:48;90.13;-14.85;98.66;;
43385;Laerm;28988;48.042;7.584;2023-11-21T04:53:33;90.13;-17.33;98.66;;
43385;Laerm;28988;48.042;7.584;2023-11-21T04:56:20;90.13;-14.85;98.71;;
43385;Laerm;28988;48.042;7.584;2023-11-21T04:59:05;90.13;-16.11;98.66;;
43385;Laerm;28988;48.042;7.584;2023-11-21T05:01:51;90.14;-14.85;98.66;;
43385;Laerm;28988;48.042;7.584;2023-11-21T05:04:37;90.13;-16.02;98.73;;
43385;Laerm;28988;48.042;7.584;2023-11-21T05:07:22;90.13;-14.85;98.71;;
43385;Laerm;28988;48.042;7.584;2023-11-21T05:10:08;90.13;-20.67;98.60;;
43385;Laerm;28988;48.042;7.584;2023-11-21T05:12:57;90.13;-14.66;98.71;;
43385;Laerm;28988;48.042;7.584;2023-11-21T05:15:44;90.13;-29.32;98.71;;
43385;Laerm;28988;48.042;7.584;2023-11-21T05:18:29;90.13;-16.02;98.71;;
43385;Laerm;28988;48.042;7.584;2023-11-21T05:21:15;90.13;-14.85;98.60;;
43385;Laerm;28988;48.042;7.584;2023-11-21T05:24:01;90.14;-14.66;98.70;;
43385;Laerm;28988;48.042;7.584;2023-11-21T05:26:46;90.13;-18.09;98.76;;
43385;Laerm;28988;48.042;7.584;2023-11-21T05:29:32;90.13;-16.02;98.86;;
43385;Laerm;28988;48.042;7.584;2023-11-21T05:32:17;90.13;-21.54;98.76;;
43385;Laerm;28988;48.042;7.584;2023-11-21T05:35:03;90.14;-42.24;98.83;;
43385;Laerm;28988;48.042;7.584;2023-11-21T05:37:49;90.14;-42.78;98.80;;
43385;Laerm;28988;48.042;7.584;2023-11-21T05:40:35;90.13;-14.85;98.66;;
43385;Laerm;28988;48.042;7.584;2023-11-21T05:43:21;90.13;-37.56;98.71;;
43385;Laerm;28988;48.042;7.584;2023-11-21T05:46:07;90.13;-14.85;98.71;;
43385;Laerm;28988;48.042;7.584;2023-11-21T05:48:54;90.13;-14.85;98.66;;
43385;Laerm;28988;48.042;7.584;2023-11-21T05:51:40;90.13;-19.66;98.71;;
43385;Laerm;28988;48.042;7.584;2023-11-21T05:54:25;90.14;-15.68;98.66;;
43385;Laerm;28988;48.042;7.584;2023-11-21T05:57:11;90.13;-16.02;98.60;;
43385;Laerm;28988;48.042;7.584;2023-11-21T05:59:57;90.13;-21.48;98.76;;
43385;Laerm;28988;48.042;7.584;2023-11-21T06:02:42;90.14;-19.74;98.71;;
43385;Laerm;28988;48.042;7.584;2023-11-21T06:05:28;90.13;-17.33;98.68;;
43385;Laerm;28988;48.042;7.584;2023-11-21T06:08:14;90.13;-37.56;98.71;;
43385;Laerm;28988;48.042;7.584;2023-11-21T06:11:02;90.14;-16.02;98.65;;
43385;Laerm;28988;48.042;7.584;2023-11-21T06:13:47;90.13;-31.74;98.66;;
43385;Laerm;28988;48.042;7.584;2023-11-21T06:16:33;90.13;-20.15;98.66;;
43385;Laerm;28988;48.042;7.584;2023-11-21T06:19:19;90.13;-14.66;98.60;;
43385;Laerm;28988;48.042;7.584;2023-11-21T06:22:04;90.13;-18.43;98.66;;
43385;Laerm;28988;48.042;7.584;2023-11-21T06:24:51;90.14;-13.76;98.60;;
43385;Laerm;28988;48.042;7.584;2023-11-21T06:27:38;90.13;-21.54;98.66;;
43385;Laerm;28988;48.042;7.584;2023-11-21T06:30:23;90.13;-16.02;98.66;;
43385;Laerm;28988;48.042;7.584;2023-11-21T06:33:09;90.13;-22.78;98.60;;
43385;Laerm;28988;48.042;7.584;2023-11-21T06:35:55;90.13;-14.85;98.66;;
43385;Laerm;28988;48.042;7.584;2023-11-21T06:38:41;90.14;-18.10;98.83;;
43385;Laerm;28988;48.042;7.584;2023-11-21T06:41:27;90.13;-21.54;98.66;;
43385;Laerm;28988;48.042;7.584;2023-11-21T06:44:12;90.14;-8.97;98.71;;
43385;Laerm;28988;48.042;7.584;2023-11-21T06:46:58;90.13;-17.33;98.71;;
43385;Laerm;28988;48.042;7.584;2023-11-21T06:49:44;90.14;-17.33;98.71;;
43385;Laerm;28988;48.042;7.584;2023-11-21T06:52:33;90.13;-20.19;98.81;;
43385;Laerm;28988;48.042;7.584;2023-11-21T06:55:18;90.14;-17.33;98.66;;
43385;Laerm;28988;48.042;7.584;2023-11-21T06:58:04;90.13;-16.02;98.65;;
43385;Laerm;28988;48.042;7.584;2023-11-21T07:00:50;90.13;-14.66;98.67;;
43385;Laerm;28988;48.042;7.584;2023-11-21T07:03:37;90.13;-14.66;98.76;;
43385;Laerm;28988;48.042;7.584;2023-11-21T07:06:23;90.13;-21.54;98.60;;
43385;Laerm;28988;48.042;7.584;2023-11-21T07:09:09;90.13;-21.54;98.71;;
43385;Laerm;28988;48.042;7.584;2023-11-21T07:11:55;90.13;-19.80;98.66;;
43385;Laerm;28988;48.042;7.584;2023-11-21T07:14:40;90.13;-14.66;98.75;;
43385;Laerm;28988;48.042;7.584;2023-11-21T07:17:28;90.14;-19.55;98.71;;
43385;Laerm;28988;48.042;7.584;2023-11-21T07:20:14;90.13;-21.54;98.66;;
43385;Laerm;28988;48.042;7.584;2023-11-21T07:23:02;90.13;-14.66;98.77;;
43385;Laerm;28988;48.042;7.584;2023-11-21T07:25:49;90.13;-18.93;98.71;;
43385;Laerm;28988;48.042;7.584;2023-11-21T07:28:35;90.13;-22.78;98.81;;
43385;Laerm;28988;48.042;7.584;2023-11-21T07:31:23;90.13;-21.54;98.71;;
43385;Laerm;28988;48.042;7.584;2023-11-21T07:34:09;90.14;-22.78;98.89;;
43385;Laerm;28988;48.042;7.584;2023-11-21T07:36:55;90.13;-14.34;98.76;;
43385;Laerm;28988;48.042;7.584;2023-11-21T07:39:40;90.14;-37.56;98.86;;
43385;Laerm;28988;48.042;7.584;2023-11-21T07:42:27;90.14;-27.51;98.86;;
43385;Laerm;28988;48.042;7.584;2023-11-21T07:45:13;90.14;-16.38;98.85;;
43385;Laerm;28988;48.042;7.584;2023-11-21T07:47:58;90.14;-38.36;98.86;;
43385;Laerm;28988;48.042;7.584;2023-11-21T07:50:46;90.14;-21.54;98.74;;
43385;Laerm;28988;48.042;7.584;2023-11-21T07:53:33;90.14;-19.74;98.93;;
43385;Laerm;28988;48.042;7.584;2023-11-21T07:56:18;90.15;-21.54;98.81;;
43385;Laerm;28988;48.042;7.584;2023-11-21T07:59:04;90.14;-19.74;98.76;;
43385;Laerm;28988;48.042;7.584;2023-11-21T08:01:50;90.15;-20.23;98.89;;
43385;Laerm;28988;48.042;7.584;2023-11-21T08:04:35;90.16;-55.00;98.84;;
43385;Laerm;28988;48.042;7.584;2023-11-21T08:07:22;90.16;-27.38;98.86;;
43385;Laerm;28988;48.042;7.584;2023-11-21T08:10:08;90.16;-35.71;98.96;;
43385;Laerm;28988;48.042;7.584;2023-11-21T08:12:55;90.16;-46.17;99.18;;
43385;Laerm;28988;48.042;7.584;2023-11-21T08:15:41;90.16;-53.07;98.91;;
43385;Laerm;28988;48.042;7.584;2023-11-21T08:18:30;90.18;-26.84;98.94;;
43385;Laerm;28988;48.042;7.584;2023-11-21T08:21:17;90.20;-24.41;99.15;;
43385;Laerm;28988;48.042;7.584;2023-11-21T08:24:05;90.23;-19.23;99.11;;
43385;Laerm;28988;48.042;7.584;2023-11-21T08:26:50;90.23;-64.04;99.07;;
43385;Laerm;28988;48.042;7.584;2023-11-21T08:29:37;90.27;-42.91;99.17;;
43385;Laerm;28988;48.042;7.584;2023-11-21T08:32:23;90.32;-58.67;99.36;;
43385;Laerm;28988;48.042;7.584;2023-11-21T08:35:09;90.41;-49.58;99.43;;
43385;Laerm;28988;48.042;7.584;2023-11-21T08:37:55;90.49;-55.27;99.62;;
43385;Laerm;28988;48.042;7.584;2023-11-21T08:40:41;90.74;-25.95;99.65;;
43385;Laerm;28988;48.042;7.584;2023-11-21T08:43:26;91.16;-17.92;100.07;;
43385;Laerm;28988;48.042;7.584;2023-11-21T08:46:13;91.63;-29.35;100.24;;
43385;Laerm;28988;48.042;7.584;2023-11-21T08:48:58;92.32;-56.24;100.92;;
43385;Laerm;28988;48.042;7.584;2023-11-21T08:51:44;92.98;-19.16;100.75;;
43385;Laerm;28988;48.042;7.584;2023-11-21T08:54:30;94.16;-34.68;101.37;;
43385;Laerm;28988;48.042;7.584;2023-11-21T08:57:16;95.26;-31.42;101.84;;
43385;Laerm;28988;48.042;7.584;2023-11-21T09:00:09;95.87;-38.39;101.86;;
43385;Laerm;28988;48.042;7.584;2023-11-21T09:02:56;97.17;-17.47;103.01;;
43385;Laerm;28988;48.042;7.584;2023-11-21T09:05:43;98.54;-14.82;103.54;;
43385;Laerm;28988;48.042;7.584;2023-11-21T09:08:30;99.28;-37.19;104.49;;
43385;Laerm;28988;48.042;7.584;2023-11-21T09:11:15;99.34;-42.91;104.30;;
43385;Laerm;28988;48.042;7.584;2023-11-21T09:14:01;98.97;-63.03;103.94;;
43385;Laerm;28988;48.042;7.584;2023-11-21T09:16:48;99.09;-31.51;104.17;;
43385;Laerm;28988;48.042;7.584;2023-11-21T09:19:39;99.15;-16.28;104.19;;
43385;Laerm;28988;48.042;7.584;2023-11-21T09:22:25;99.74;-29.70;104.58;;
43385;Laerm;28988;48.042;7.584;2023-11-21T09:25:10;100.29;-28.80;104.90;;
43385;Laerm;28988;48.042;7.584;2023-11-21T09:27:56;100.69;-70.26;104.85;;
43385;Laerm;28988;48.042;7.584;2023-11-21T09:30:43;100.88;-28.76;105.03;;
43385;Laerm;28988;48.042;7.584;2023-11-21T09:33:29;100.60;-36.97;104.99;;
43385;Laerm;28988;48.042;7.584;2023-11-21T09:36:15;100.21;-28.13;104.86;;
43385;Laerm;28988;48.042;7.584;2023-11-21T09:39:01;100.05;-33.83;105.18;;
43385;Laerm;28988;48.042;7.584;2023-11-21T09:41:51;99.99;-21.49;104.99;;
43385;Laerm;28988;48.042;7.584;2023-11-21T09:47:43;97.00;-27.09;102.42;;
43385;Laerm;28988;48.042;7.584;2023-11-21T09:50:29;96.40;-17.22;102.27;;
43385;Laerm;28988;48.042;7.584;2023-11-21T09:53:19;96.27;-17.43;102.22;;
43385;Laerm;28988;48.042;7.584;2023-11-21T09:56:10;96.03;-25.56;101.84;;
43385;Laerm;28988;48.042;7.584;2023-11-21T09:58:55;95.37;-28.49;101.86;;
43385;Laerm;28988;48.042;7.584;2023-11-21T10:01:42;94.77;-17.08;101.75;;
43385;Laerm;28988;48.042;7.584;2023-11-21T10:04:28;94.70;-45.46;101.65;;
43385;Laerm;28988;48.042;7.584;2023-11-21T10:07:14;95.05;-27.16;101.70;;
43385;Laerm;28988;48.042;7.584;2023-11-21T10:10:03;95.56;-36.38;101.73;;
43385;Laerm;28988;48.042;7.584;2023-11-21T10:12:50;96.47;-23.87;102.46;;
43385;Laerm;28988;48.042;7.584;2023-11-21T10:15:39;97.97;-36.42;104.09;;
43385;Laerm;28988;48.042;7.584;2023-11-21T10:18:29;99.37;-23.70;104.49;;
43385;Laerm;28988;48.042;7.584;2023-11-21T10:21:15;100.33;-30.19;104.69;;
43385;Laerm;28988;48.042;7.584;2023-11-21T10:24:01;100.87;-32.72;105.19;;
43385;Laerm;28988;48.042;7.584;2023-11-21T10:26:47;101.20;-19.48;105.03;;
43385;Laerm;28988;48.042;7.584;2023-11-21T10:29:34;101.25;-26.95;105.23;;
43385;Laerm;28988;48.042;7.584;2023-11-21T10:32:22;101.25;-22.53;105.05;;
43385;Laerm;28988;48.042;7.584;2023-11-21T10:35:12;101.20;-25.34;105.46;;
43385;Laerm;28988;48.042;7.584;2023-11-21T10:38:01;101.12;-72.46;105.51;;
43385;Laerm;28988;48.042;7.584;2023-11-21T10:40:46;101.13;-16.56;105.40;;
43385;Laerm;28988;48.042;7.584;2023-11-21T10:43:33;101.16;-45.01;105.65;;
43385;Laerm;28988;48.042;7.584;2023-11-21T10:46:18;101.20;-37.36;105.44;;
43385;Laerm;28988;48.042;7.584;2023-11-21T10:49:05;101.18;-49.23;105.36;;
43385;Laerm;28988;48.042;7.584;2023-11-21T10:51:55;101.11;-36.81;105.45;;
43385;Laerm;28988;48.042;7.584;2023-11-21T10:54:41;101.24;-22.81;105.51;;
43385;Laerm;28988;48.042;7.584;2023-11-21T10:57:26;101.05;-18.90;105.01;;
43385;Laerm;28988;48.042;7.584;2023-11-21T11:00:13;100.57;-23.14;104.91;;
43385;Laerm;28988;48.042;7.584;2023-11-21T11:02:59;100.45;-29.77;104.77;;
43385;Laerm;28988;48.042;7.584;2023-11-21T11:05:45;99.68;-43.72;104.43;;
43385;Laerm;28988;48.042;7.584;2023-11-21T11:08:37;98.81;-29.48;104.25;;
43385;Laerm;28988;48.042;7.584;2023-11-21T11:11:23;97.02;-31.05;102.43;;
43385;Laerm;28988;48.042;7.584;2023-11-21T11:14:13;95.81;-25.30;101.94;;
43385;Laerm;28988;48.042;7.584;2023-11-21T11:16:59;95.90;-16.06;102.62;;
43385;Laerm;28988;48.042;7.584;2023-11-21T11:19:46;96.57;-17.03;102.01;;
43385;Laerm;28988;48.042;7.584;2023-11-21T11:22:37;96.99;-40.88;102.47;;
43385;Laerm;28988;48.042;7.584;2023-11-21T11:28:14;99.74;-27.71;104.80;;
43385;Laerm;28988;48.042;7.584;2023-11-21T11:31:04;100.83;-17.96;105.23;;
43385;Laerm;28988;48.042;7.584;2023-11-21T11:33:53;101.28;-30.19;105.62;;
43385;Laerm;28988;48.042;7.584;2023-11-21T11:36:49;101.29;-16.07;105.91;;
43385;Laerm;28988;48.042;7.584;2023-11-21T11:39:40;100.97;-27.32;106.07;;
43385;Laerm;28988;48.042;7.584;2023-11-21T11:42:30;100.00;-16.74;105.50;;
43385;Laerm;28988;48.042;7.584;2023-11-21T11:45:17;100.44;-14.78;105.60;;
43385;Laerm;28988;48.042;7.584;2023-11-21T11:48:04;100.61;-41.50;105.66;;
43385;Laerm;28988;48.042;7.584;2023-11-21T11:51:07;99.71;-30.73;105.67;;
43385;Laerm;28988;48.042;7.584;2023-11-21T11:53:55;99.07;-20.87;105.24;;
43385;Laerm;28988;48.042;7.584;2023-11-21T11:56:40;99.00;-21.28;105.30;;
43385;Laerm;28988;48.042;7.584;2023-11-21T11:59:27;98.77;-30.93;105.17;;
43385;Laerm;28988;48.042;7.584;2023-11-21T12:02:12;97.32;-36.07;105.07;;
43385;Laerm;28988;48.042;7.584;2023-11-21T12:04:58;95.07;-23.87;103.46;;
43385;Laerm;28988;48.042;7.584;2023-11-21T12:08:02;94.01;-18.63;103.67;;
43385;Laerm;28988;48.042;7.584;2023-11-21T12:10:48;94.36;-45.33;104.35;;
43385;Laerm;28988;48.042;7.584;2023-11-21T12:13:35;94.31;-22.17;103.73;;
43385;Laerm;28988;48.042;7.584;2023-11-21T12:16:23;92.70;-30.41;103.98;;
43385;Laerm;28988;48.042;7.584;2023-11-21T12:19:12;91.25;-27.12;103.18;;
43385;Laerm;28988;48.042;7.584;2023-11-21T12:21:58;89.77;-38.42;101.36;;
43385;Laerm;28988;48.042;7.584;2023-11-21T12:24:44;88.76;-51.11;99.76;;
43385;Laerm;28988;48.042;7.584;2023-11-21T12:27:30;88.44;-33.67;99.63;;
43385;Laerm;28988;48.042;7.584;2023-11-21T12:30:16;88.07;-48.58;99.36;;
43385;Laerm;28988;48.042;7.584;2023-11-21T12:33:02;88.22;-35.55;100.74;;
43385;Laerm;28988;48.042;7.584;2023-11-21T12:35:49;88.67;-37.56;99.70;;
43385;Laerm;28988;48.042;7.584;2023-11-21T12:38:34;89.81;-18.89;100.79;;
43385;Laerm;28988;48.042;7.584;2023-11-21T12:41:23;91.11;-36.45;102.34;;
43385;Laerm;28988;48.042;7.584;2023-11-21T12:44:09;92.05;-25.23;103.10;;
43385;Laerm;28988;48.042;7.584;2023-11-21T12:46:56;92.89;-17.11;103.72;;
43385;Laerm;28988;48.042;7.584;2023-11-21T12:49:42;93.58;-40.21;103.46;;
43385;Laerm;28988;48.042;7.584;2023-11-21T12:52:29;93.70;-43.09;103.44;;
43385;Laerm;28988;48.042;7.584;2023-11-21T12:55:16;93.85;-34.80;104.07;;
43385;Laerm;28988;48.042;7.584;2023-11-21T12:58:02;94.47;-41.34;103.35;;
43385;Laerm;28988;48.042;7.584;2023-11-21T13:00:58;94.98;-22.61;103.66;;
43385;Laerm;28988;48.042;7.584;2023-11-21T13:03:48;96.45;-22.97;104.71;;
43385;Laerm;28988;48.042;7.584;2023-11-21T13:06:36;97.97;-20.52;105.39;;
43385;Laerm;28988;48.042;7.584;2023-11-21T13:09:26;98.54;-49.92;105.00;;
43385;Laerm;28988;48.042;7.584;2023-11-21T13:12:12;98.90;-16.36;105.38;;
43385;Laerm;28988;48.042;7.584;2023-11-21T13:15:03;99.18;-14.44;105.31;;
43385;Laerm;28988;48.042;7.584;2023-11-21T13:17:48;99.64;-44.45;105.35;;
43385;Laerm;28988;48.042;7.584;2023-11-21T13:20:35;100.69;-35.31;105.55;;
43385;Laerm;28988;48.042;7.584;2023-11-21T13:23:21;101.20;-18.47;105.38;;
43385;Laerm;28988;48.042;7.584;2023-11-21T13:26:08;101.21;-27.49;105.36;;
43385;Laerm;28988;48.042;7.584;2023-11-21T13:28:54;101.19;-15.44;105.35;;
43385;Laerm;28988;48.042;7.584;2023-11-21T13:31:39;101.17;-20.78;105.47;;
43385;Laerm;28988;48.042;7.584;2023-11-21T13:34:25;101.21;-35.73;105.45;;
43385;Laerm;28988;48.042;7.584;2023-11-21T13:37:13;100.39;-26.87;104.86;;
43385;Laerm;28988;48.042;7.584;2023-11-21T13:39:58;98.32;-42.86;103.98;;
43385;Laerm;28988;48.042;7.584;2023-11-21T13:42:44;96.10;-17.22;102.08;;
43385;Laerm;28988;48.042;7.584;2023-11-21T13:45:30;94.13;-23.90;101.52;;
43385;Laerm;28988;48.042;7.584;2023-11-21T13:48:16;92.25;-35.37;100.81;;
43385;Laerm;28988;48.042;7.584;2023-11-21T13:51:10;91.13;-26.18;100.11;;
43385;Laerm;28988;48.042;7.584;2023-11-21T13:54:02;90.68;-37.64;99.73;;
43385;Laerm;28988;48.042;7.584;2023-11-21T13:56:50;90.47;-21.26;99.44;;
43385;Laerm;28988;48.042;7.584;2023-11-21T13:59:36;90.36;-50.58;99.30;;
43385;Laerm;28988;48.042;7.584;2023-11-21T14:02:22;90.34;-39.33;99.39;;
43385;Laerm;28988;48.042;7.584;2023-11-21T14:05:17;90.33;-23.10;99.29;;
43385;Laerm;28988;48.042;7.584;2023-11-21T14:08:14;90.37;-26.03;99.53;;
43385;Laerm;28988;48.042;7.584;2023-11-21T14:11:05;90.38;-29.68;99.30;;
43385;Laerm;28988;48.042;7.584;2023-11-21T14:13:52;90.40;-31.03;99.55;;
43385;Laerm;28988;48.042;7.584;2023-11-21T14:16:37;90.38;-29.85;99.31;;
43385;Laerm;28988;48.042;7.584;2023-11-21T14:19:23;90.36;-23.38;99.42;;
43385;Laerm;28988;48.042;7.584;2023-11-21T14:22:12;90.36;-38.13;99.62;;
43385;Laerm;28988;48.042;7.584;2023-11-21T14:24:58;90.35;-28.67;99.29;;
43385;Laerm;28988;48.042;7.584;2023-11-21T14:27:45;90.35;-31.63;99.28;;
43385;Laerm;28988;48.042;7.584;2023-11-21T14:30:30;90.38;-32.03;99.38;;
43385;Laerm;28988;48.042;7.584;2023-11-21T14:33:21;90.36;-28.04;99.37;;
43385;Laerm;28988;48.042;7.584;2023-11-21T14:36:07;90.39;-21.71;99.69;;
43385;Laerm;28988;48.042;7.584;2023-11-21T14:38:55;90.40;-44.06;99.31;;
43385;Laerm;28988;48.042;7.584;2023-11-21T14:41:41;90.41;-37.29;99.52;;
43385;Laerm;28988;48.042;7.584;2023-11-21T14:44:28;90.36;-31.42;99.73;;
43385;Laerm;28988;48.042;7.584;2023-11-21T14:47:18;90.37;-33.73;99.42;;
43385;Laerm;28988;48.042;7.584;2023-11-21T14:50:10;90.39;-36.30;99.49;;
43385;Laerm;28988;48.042;7.584;2023-11-21T14:53:14;90.40;-20.25;99.33;;
43385;Laerm;28988;48.042;7.584;2023-11-21T14:56:00;90.43;-41.00;99.56;;
43385;Laerm;28988;48.042;7.584;2023-11-21T14:58:49;90.43;-24.17;99.36;;
43385;Laerm;28988;48.042;7.584;2023-11-21T15:01:34;90.45;-22.07;99.54;;
43385;Laerm;28988;48.042;7.584;2023-11-21T15:04:30;90.45;-23.10;99.51;;
43385;Laerm;28988;48.042;7.584;2023-11-21T15:07:21;90.42;-28.95;99.28;;
43385;Laerm;28988;48.042;7.584;2023-11-21T15:10:10;90.38;-37.82;99.45;;
43385;Laerm;28988;48.042;7.584;2023-11-21T15:13:00;90.37;-40.25;99.35;;
43385;Laerm;28988;48.042;7.584;2023-11-21T15:15:45;90.37;-22.95;99.42;;
43385;Laerm;28988;48.042;7.584;2023-11-21T15:18:31;90.32;-41.46;99.34;;